createdAt,value
2018-03-30T00:00:58.509Z,128.00
2018-03-30T00:03:27.939Z,127.80
2018-03-30T00:05:57.080Z,136.20
2018-03-30T00:08:27.531Z,133.20
2018-03-30T00:10:56.746Z,124.60
2018-03-30T00:13:26.105Z,127.60
2018-03-30T00:15:55.339Z,129.00
2018-03-30T00:18:24.961Z,128.80
2018-03-30T00:20:53.787Z,120.40
2018-03-30T00:23:22.975Z,126.00
2018-03-30T00:25:52.198Z,124.40
2018-03-30T00:28:21.323Z,121.60
2018-03-30T00:30:49.988Z,120.20
2018-03-30T00:33:19.083Z,113.20
2018-03-30T00:35:48.056Z,119.40
2018-03-30T00:38:17.215Z,119.60
2018-03-30T00:40:46.714Z,115.80
2018-03-30T00:43:15.672Z,125.80
2018-03-30T00:45:45.481Z,112.20
2018-03-30T00:48:14.653Z,116.60
2018-03-30T00:50:43.417Z,119.60
2018-03-30T00:53:25.034Z,121.80
2018-03-30T00:55:54.288Z,120.20
2018-03-30T00:58:23.176Z,123.80
2018-03-30T01:00:52.302Z,134.00
2018-03-30T01:03:21.454Z,138.60
2018-03-30T01:05:50.906Z,131.60
2018-03-30T01:08:20.007Z,129.40
2018-03-30T01:10:49.046Z,135.20
2018-03-30T01:13:17.932Z,139.40
2018-03-30T01:15:47.114Z,149.60
2018-03-30T01:18:16.462Z,146.80
2018-03-30T01:20:45.568Z,154.00
2018-03-30T01:23:14.866Z,153.20
2018-03-30T01:25:44.232Z,144.00
2018-03-30T01:28:13.110Z,145.80
2018-03-30T01:30:42.209Z,148.20
2018-03-30T01:33:11.054Z,150.20
2018-03-30T01:35:39.953Z,142.60
2018-03-30T01:38:09.072Z,150.80
2018-03-30T01:40:38.180Z,152.40
2018-03-30T01:43:08.100Z,176.40
2018-03-30T01:45:37.513Z,160.40
2018-03-30T01:48:06.889Z,177.80
2018-03-30T01:50:35.893Z,174.00
2018-03-30T01:53:04.901Z,192.00
2018-03-30T01:55:34.217Z,179.60
2018-03-30T01:58:03.612Z,187.20
2018-03-30T02:00:32.625Z,191.00
2018-03-30T02:03:01.996Z,183.00
2018-03-30T02:05:31.070Z,176.20
2018-03-30T02:08:00.322Z,147.20
2018-03-30T02:10:29.400Z,151.00
2018-03-30T02:12:58.225Z,150.40
2018-03-30T02:15:27.445Z,144.40
2018-03-30T02:17:56.814Z,140.40
2018-03-30T02:20:26.183Z,140.20
2018-03-30T02:22:55.260Z,135.80
2018-03-30T02:25:24.637Z,145.80
2018-03-30T02:27:54.205Z,147.00
2018-03-30T02:30:23.367Z,151.40
2018-03-30T02:32:52.470Z,161.20
2018-03-30T02:35:22.745Z,160.60
2018-03-30T02:37:51.988Z,154.00
2018-03-30T02:40:21.254Z,161.40
2018-03-30T02:42:50.586Z,156.80
2018-03-30T02:45:20.127Z,169.20
2018-03-30T02:47:49.439Z,173.00
2018-03-30T02:50:18.763Z,159.20
2018-03-30T02:52:47.997Z,148.00
2018-03-30T02:55:16.805Z,125.20
2018-03-30T02:57:46.112Z,129.40
2018-03-30T03:00:15.426Z,122.00
2018-03-30T03:02:44.583Z,137.20
2018-03-30T03:05:13.786Z,136.40
2018-03-30T03:07:42.930Z,132.00
2018-03-30T03:10:11.946Z,135.20
2018-03-30T03:12:41.007Z,120.20
2018-03-30T03:15:09.916Z,122.80
2018-03-30T03:17:39.076Z,118.00
2018-03-30T03:20:08.263Z,123.20
2018-03-30T03:22:37.387Z,129.20
2018-03-30T03:25:06.412Z,112.20
2018-03-30T03:27:35.799Z,107.40
2018-03-30T03:30:04.859Z,110.40
2018-03-30T03:32:33.648Z,107.00
2018-03-30T03:35:02.871Z,103.00
2018-03-30T03:37:31.997Z,108.80
2018-03-30T03:40:00.763Z,113.00
2018-03-30T03:42:29.590Z,112.80
2018-03-30T03:44:58.356Z,97.00
2018-03-30T03:47:27.307Z,96.60
2018-03-30T03:49:56.580Z,93.40
2018-03-30T03:52:25.975Z,104.60
2018-03-30T03:54:55.133Z,100.80
2018-03-30T03:57:24.411Z,97.60
2018-03-30T03:59:53.983Z,94.60
2018-03-30T04:02:23.262Z,80.80
2018-03-30T04:04:52.526Z,85.20
2018-03-30T04:07:21.821Z,91.80
2018-03-30T04:09:50.947Z,90.40
2018-03-30T04:12:19.879Z,88.40
2018-03-30T04:14:49.048Z,88.20
2018-03-30T04:17:17.995Z,85.80
2018-03-30T04:19:47.341Z,78.80
2018-03-30T04:22:16.401Z,77.20
2018-03-30T04:24:45.477Z,73.60
2018-03-30T04:27:15.196Z,75.20
2018-03-30T04:29:44.525Z,74.20
2018-03-30T04:32:13.732Z,69.80
2018-03-30T04:34:43.078Z,72.60
2018-03-30T04:37:12.340Z,71.00
2018-03-30T04:39:42.327Z,71.40
2018-03-30T04:42:12.618Z,66.00
2018-03-30T04:44:41.920Z,67.60
2018-03-30T04:47:10.983Z,66.00
2018-03-30T04:49:39.742Z,61.20
2018-03-30T04:52:08.812Z,62.00
2018-03-30T04:54:38.183Z,62.20
2018-03-30T04:57:07.618Z,56.00
2018-03-30T04:59:37.075Z,57.00
2018-03-30T05:02:06.478Z,52.60
2018-03-30T05:04:35.940Z,51.00
2018-03-30T05:07:05.551Z,50.60
2018-03-30T05:09:35.033Z,52.60
2018-03-30T05:12:04.440Z,46.60
2018-03-30T05:14:33.689Z,46.60
2018-03-30T05:17:02.822Z,46.20
2018-03-30T05:19:32.065Z,43.60
2018-03-30T05:22:00.948Z,44.20
2018-03-30T05:24:30.494Z,39.20
2018-03-30T05:27:01.166Z,43.00
2018-03-30T05:29:33.168Z,45.40
2018-03-30T05:32:06.153Z,46.00
2018-03-30T05:34:36.664Z,43.80
2018-03-30T05:37:09.418Z,47.60
2018-03-30T05:39:39.711Z,49.60
2018-03-30T05:42:08.799Z,45.20
2018-03-30T05:44:38.549Z,48.00
2018-03-30T05:47:07.623Z,48.00
2018-03-30T05:49:37.143Z,46.00
2018-03-30T05:52:06.215Z,43.80
2018-03-30T05:54:35.846Z,44.00
2018-03-30T05:57:04.949Z,44.80
2018-03-30T05:59:34.345Z,44.80
2018-03-30T06:02:03.791Z,39.80
2018-03-30T06:04:33.039Z,47.40
2018-03-30T06:07:01.983Z,47.40
2018-03-30T06:09:31.228Z,46.00
2018-03-30T06:12:01.060Z,46.60
2018-03-30T06:14:30.579Z,44.60
2018-03-30T06:17:00.097Z,44.60
2018-03-30T06:19:31.451Z,37.60
2018-03-30T06:22:01.235Z,36.00
2018-03-30T06:24:30.692Z,36.80
2018-03-30T06:27:01.357Z,33.60
2018-03-30T06:29:35.992Z,30.00
2018-03-30T06:32:08.546Z,35.80
2018-03-30T06:34:38.525Z,34.00
2018-03-30T06:37:09.214Z,27.60
2018-03-30T06:39:41.763Z,27.60
2018-03-30T06:42:12.385Z,29.00
2018-03-30T06:44:42.337Z,31.40
2018-03-30T06:47:12.712Z,27.00
2018-03-30T06:49:42.313Z,31.40
2018-03-30T06:52:11.503Z,30.40
2018-03-30T06:54:40.434Z,26.80
2018-03-30T06:57:09.775Z,28.00
2018-03-30T06:59:38.954Z,25.40
2018-03-30T07:02:08.346Z,26.80
2018-03-30T07:04:37.735Z,24.40
2018-03-30T07:07:06.949Z,26.80
2018-03-30T07:09:36.487Z,26.00
2018-03-30T07:12:05.921Z,27.80
2018-03-30T07:14:37.096Z,24.40
2018-03-30T07:17:08.259Z,28.20
2018-03-30T07:19:39.650Z,22.60
2018-03-30T07:22:12.776Z,21.00
2018-03-30T07:24:43.017Z,25.80
2018-03-30T07:27:14.437Z,26.60
2018-03-30T07:29:48.071Z,22.20
2018-03-30T07:32:18.797Z,19.00
2018-03-30T07:34:48.993Z,20.40
2018-03-30T07:37:19.191Z,19.40
2018-03-30T07:39:48.901Z,19.00
2018-03-30T07:42:19.435Z,19.00
2018-03-30T07:44:48.870Z,16.80
2018-03-30T07:47:19.292Z,16.40
2018-03-30T07:49:48.645Z,15.00
2018-03-30T07:52:18.598Z,17.80
2018-03-30T07:54:48.660Z,16.60
2018-03-30T07:57:20.153Z,17.80
2018-03-30T07:59:51.875Z,21.20
2018-03-30T08:02:24.290Z,21.40
2018-03-30T08:04:56.685Z,17.60
2018-03-30T08:07:27.881Z,18.00
2018-03-30T08:12:37.272Z,19.60
2018-03-30T08:15:06.010Z,21.20
2018-03-30T08:17:37.503Z,19.20
2018-03-30T08:20:10.404Z,16.20
2018-03-30T08:22:42.873Z,16.80
2018-03-30T08:25:14.904Z,19.00
2018-03-30T08:27:45.239Z,18.60
2018-03-30T08:30:15.226Z,18.60
2018-03-30T08:32:46.023Z,17.80
2018-03-30T08:35:16.212Z,19.60
2018-03-30T08:37:47.413Z,15.80
2018-03-30T08:40:17.926Z,15.00
2018-03-30T08:42:49.012Z,13.60
2018-03-30T08:47:56.831Z,15.20
2018-03-30T08:50:26.488Z,13.20
2018-03-30T08:52:55.968Z,13.20
2018-03-30T08:55:25.067Z,11.00
2018-03-30T08:57:53.953Z,12.80
2018-03-30T09:00:23.313Z,10.80
2018-03-30T09:02:53.383Z,10.20
2018-03-30T09:05:23.432Z,11.20
2018-03-30T09:07:54.737Z,10.20
2018-03-30T09:10:25.731Z,10.20
2018-03-30T09:12:58.074Z,11.40
2018-03-30T09:15:29.481Z,12.00
2018-03-30T09:18:00.130Z,12.80
2018-03-30T09:20:34.985Z,10.20
2018-03-30T09:23:06.092Z,12.20
2018-03-30T09:25:35.231Z,14.40
2018-03-30T09:28:03.971Z,20.40
2018-03-30T09:30:34.381Z,21.00
2018-03-30T09:33:03.879Z,16.80
2018-03-30T09:35:33.411Z,17.60
2018-03-30T09:38:02.854Z,13.80
2018-03-30T09:40:32.488Z,17.40
2018-03-30T09:43:02.933Z,18.40
2018-03-30T09:45:33.558Z,15.00
2018-03-30T09:48:05.268Z,14.80
2018-03-30T09:50:35.705Z,12.60
2018-03-30T10:02:54.770Z,12.40
2018-03-30T10:05:24.038Z,11.60
2018-03-30T10:07:53.128Z,10.80
2018-03-30T10:10:22.582Z,11.20
2018-03-30T10:12:51.827Z,13.80
2018-03-30T10:15:21.033Z,10.00
2018-03-30T10:17:50.253Z,11.60
2018-03-30T10:20:20.008Z,10.40
2018-03-30T10:22:49.148Z,10.80
2018-03-30T10:25:18.594Z,12.00
2018-03-30T10:27:49.070Z,11.00
2018-03-30T10:30:19.826Z,15.80
2018-03-30T10:32:57.574Z,14.80
2018-03-30T10:35:28.131Z,14.00
2018-03-30T10:37:59.958Z,11.80
2018-03-30T10:40:31.331Z,11.60
2018-03-30T10:43:00.947Z,14.40
2018-03-30T10:45:29.911Z,10.80
2018-03-30T10:47:59.047Z,14.80
2018-03-30T10:50:28.117Z,15.60
2018-03-30T10:52:57.633Z,13.00
2018-03-30T10:55:26.725Z,12.80
2018-03-30T10:57:55.844Z,9.40
2018-03-30T11:00:25.037Z,11.80
2018-03-30T11:02:56.136Z,11.40
2018-03-30T11:05:27.286Z,12.40
2018-03-30T11:07:57.532Z,14.60
2018-03-30T11:10:29.021Z,13.20
2018-03-30T11:13:00.193Z,11.00
2018-03-30T11:15:31.025Z,14.00
2018-03-30T11:18:02.206Z,11.60
2018-03-30T11:20:33.170Z,11.40
2018-03-30T11:23:05.360Z,11.60
2018-03-30T11:25:35.290Z,13.00
2018-03-30T11:28:04.430Z,13.60
2018-03-30T11:30:39.671Z,11.00
2018-03-30T11:33:09.024Z,11.20
2018-03-30T11:35:38.006Z,13.00
2018-03-30T11:38:07.245Z,12.20
2018-03-30T11:40:36.532Z,12.20
2018-03-30T11:43:07.609Z,11.20
2018-03-30T11:45:40.423Z,11.00
2018-03-30T11:48:10.665Z,11.60
2018-03-30T11:50:41.550Z,14.40
2018-03-30T11:53:13.168Z,10.80
2018-03-30T11:55:43.227Z,12.00
2018-03-30T11:58:13.898Z,13.40
2018-03-30T12:00:44.036Z,15.40
2018-03-30T12:03:14.267Z,16.00
2018-03-30T12:05:44.703Z,12.80
2018-03-30T12:08:15.211Z,13.60
2018-03-30T12:10:47.698Z,13.20
2018-03-30T12:13:20.613Z,10.20
2018-03-30T12:15:49.608Z,13.00
2018-03-30T12:21:28.196Z,12.80
2018-03-30T12:23:59.021Z,11.40
2018-03-30T12:26:28.932Z,12.40
2018-03-30T12:28:59.753Z,11.40
2018-03-30T12:31:29.454Z,10.00
2018-03-30T12:33:59.281Z,9.60
2018-03-30T12:36:29.069Z,13.60
2018-03-30T12:38:58.768Z,10.40
2018-03-30T12:41:28.985Z,12.60
2018-03-30T12:43:58.432Z,15.20
2018-03-30T12:46:29.419Z,18.60
2018-03-30T12:48:59.602Z,17.20
2018-03-30T12:51:30.220Z,21.60
2018-03-30T12:54:00.280Z,21.60
2018-03-30T12:56:29.845Z,22.60
2018-03-30T12:58:59.266Z,21.40
2018-03-30T13:01:28.733Z,19.20
2018-03-30T13:03:58.121Z,23.00
2018-03-30T13:06:27.131Z,24.80
2018-03-30T13:08:56.366Z,27.20
2018-03-30T13:11:25.639Z,30.00
2018-03-30T13:13:54.830Z,26.20
2018-03-30T13:16:24.284Z,30.40
2018-03-30T13:18:53.551Z,29.00
2018-03-30T13:21:23.134Z,31.20
2018-03-30T13:23:52.567Z,25.80
2018-03-30T13:26:21.830Z,27.80
2018-03-30T13:28:51.044Z,24.00
2018-03-30T13:31:20.437Z,24.00
2018-03-30T13:33:49.740Z,25.80
2018-03-30T13:36:19.169Z,29.20
2018-03-30T13:38:48.805Z,29.20
2018-03-30T13:41:18.533Z,30.80
2018-03-30T13:43:47.648Z,30.80
2018-03-30T13:46:17.774Z,40.40
2018-03-30T13:48:47.223Z,36.80
2018-03-30T13:51:22.696Z,47.20
2018-03-30T13:53:56.611Z,49.40
2018-03-30T13:56:27.958Z,39.40
2018-03-30T13:59:00.924Z,34.80
2018-03-30T14:01:32.166Z,38.20
2018-03-30T14:04:13.681Z,42.60
2018-03-30T14:09:42.559Z,42.00
2018-03-30T14:12:17.947Z,42.20
2018-03-30T14:14:47.583Z,43.00
2018-03-30T14:17:22.423Z,41.80
2018-03-30T14:19:54.642Z,47.20
2018-03-30T14:22:28.026Z,46.20
2018-03-30T14:24:57.888Z,52.20
2018-03-30T14:27:39.424Z,48.40
2018-03-30T14:30:17.333Z,47.60
2018-03-30T14:32:54.698Z,52.40
2018-03-30T14:38:34.953Z,50.00
2018-03-30T14:41:05.034Z,54.40
2018-03-30T14:43:36.038Z,55.60
2018-03-30T14:46:12.439Z,56.80
2018-03-30T14:48:42.962Z,55.20
2018-03-30T14:54:32.386Z,53.00
2018-03-30T14:57:05.698Z,56.40
2018-03-30T14:59:35.877Z,57.80
2018-03-30T15:05:22.566Z,59.00
2018-03-30T15:07:54.373Z,63.00
2018-03-30T15:10:29.815Z,62.60
2018-03-30T15:13:06.908Z,63.60
2018-03-30T15:18:42.486Z,62.80
2018-03-30T15:21:17.671Z,62.80
2018-03-30T15:23:58.171Z,58.60
2018-03-30T15:26:29.445Z,61.80
2018-03-30T15:29:02.079Z,60.20
2018-03-30T15:31:33.176Z,60.20
2018-03-30T15:37:05.762Z,68.20
2018-03-30T15:39:35.372Z,63.80
2018-03-30T15:42:05.036Z,67.40
2018-03-30T15:44:35.648Z,65.00
2018-03-30T15:47:07.945Z,67.00
2018-03-30T15:49:37.243Z,64.00
2018-03-30T15:52:07.323Z,65.80
2018-03-30T15:54:36.939Z,68.60
2018-03-30T15:57:07.190Z,64.00
2018-03-30T15:59:36.508Z,68.40
2018-03-30T16:02:05.954Z,68.00
2018-03-30T16:04:35.583Z,67.80
2018-03-30T16:07:05.014Z,70.60
2018-03-30T16:12:39.572Z,67.60
2018-03-30T16:15:09.349Z,70.00
2018-03-30T16:17:39.040Z,69.00
2018-03-30T16:20:07.693Z,68.60
2018-03-30T16:22:36.271Z,67.40
2018-03-30T16:25:04.827Z,70.00
2018-03-30T16:27:33.677Z,67.60
2018-03-30T16:30:02.353Z,64.80
2018-03-30T16:32:30.973Z,64.80
2018-03-30T16:34:59.323Z,65.20
2018-03-30T16:37:27.603Z,66.80
2018-03-30T16:39:56.250Z,66.60
2018-03-30T16:42:24.609Z,70.60
2018-03-30T16:44:53.347Z,66.60
2018-03-30T16:47:22.610Z,70.80
2018-03-30T16:49:51.484Z,71.00
2018-03-30T16:52:19.918Z,69.60
2018-03-30T16:54:48.727Z,65.00
2018-03-30T16:57:18.138Z,73.40
2018-03-30T16:59:46.654Z,73.00
2018-03-30T17:02:15.315Z,72.00
2018-03-30T17:04:44.288Z,72.60
2018-03-30T17:07:12.948Z,71.20
2018-03-30T17:09:42.608Z,73.00
2018-03-30T17:12:11.111Z,73.20
2018-03-30T17:14:39.690Z,75.20
2018-03-30T17:17:08.180Z,76.00
2018-03-30T17:19:36.611Z,76.80
2018-03-30T17:22:05.190Z,77.40
2018-03-30T17:24:36.629Z,76.00
2018-03-30T17:27:10.673Z,72.80
2018-03-30T17:29:39.276Z,77.00
2018-03-30T17:32:07.665Z,76.80
2018-03-30T17:34:36.194Z,80.00
2018-03-30T17:37:04.910Z,82.00
2018-03-30T17:39:33.634Z,82.20
2018-03-30T17:42:02.076Z,79.00
2018-03-30T17:44:30.798Z,79.20
2018-03-30T17:46:59.769Z,83.40
2018-03-30T17:49:28.448Z,85.00
2018-03-30T17:51:57.205Z,83.80
2018-03-30T17:54:25.966Z,83.80
2018-03-30T17:56:54.435Z,82.80
2018-03-30T17:59:23.653Z,82.80
2018-03-30T18:01:52.099Z,79.60
2018-03-30T18:04:20.855Z,79.60
2018-03-30T18:06:49.559Z,80.80
2018-03-30T18:09:17.860Z,74.20
2018-03-30T18:11:46.454Z,75.80
2018-03-30T18:14:15.551Z,73.60
2018-03-30T18:16:44.220Z,76.20
2018-03-30T18:19:13.049Z,77.20
2018-03-30T18:21:42.008Z,81.00
2018-03-30T18:24:10.781Z,76.20
2018-03-30T18:26:38.976Z,82.80
2018-03-30T18:29:07.782Z,83.20
2018-03-30T18:31:36.536Z,84.60
2018-03-30T18:34:05.566Z,82.80
2018-03-30T18:36:34.285Z,80.20
2018-03-30T18:39:02.990Z,82.20
2018-03-30T18:41:31.773Z,78.20
2018-03-30T18:44:00.328Z,81.20
2018-03-30T18:46:29.000Z,78.80
2018-03-30T18:48:57.735Z,86.20
2018-03-30T18:51:26.359Z,84.00
2018-03-30T18:53:55.426Z,82.60
2018-03-30T18:56:23.796Z,81.80
2018-03-30T18:58:52.118Z,79.20
2018-03-30T19:01:21.136Z,82.00
2018-03-30T19:03:49.680Z,83.60
2018-03-30T19:06:17.876Z,80.40
2018-03-30T19:08:46.323Z,85.20
2018-03-30T19:11:14.602Z,80.20
2018-03-30T19:13:43.393Z,84.00
2018-03-30T19:16:12.065Z,80.80
2018-03-30T19:18:40.664Z,81.80
2018-03-30T19:21:09.557Z,81.80
2018-03-30T19:23:38.249Z,77.60
2018-03-30T19:26:06.909Z,82.80
2018-03-30T19:28:35.489Z,76.60
2018-03-30T19:31:03.884Z,75.60
2018-03-30T19:33:32.248Z,80.00
2018-03-30T19:36:01.030Z,81.20
2018-03-30T19:38:29.248Z,80.60
2018-03-30T19:40:57.679Z,77.40
2018-03-30T19:43:26.470Z,80.00
2018-03-30T19:45:54.618Z,76.40
2018-03-30T19:48:23.100Z,74.80
2018-03-30T19:50:51.385Z,77.40
2018-03-30T19:53:19.767Z,72.00
2018-03-30T19:55:48.292Z,71.20
2018-03-30T19:58:17.054Z,65.20
2018-03-30T20:00:45.666Z,69.80
2018-03-30T20:03:14.312Z,72.40
2018-03-30T20:05:42.609Z,69.60
2018-03-30T20:08:11.135Z,69.40
2018-03-30T20:10:39.534Z,65.80
2018-03-30T20:13:07.975Z,69.20
2018-03-30T20:15:36.691Z,65.00
2018-03-30T20:18:04.812Z,66.40
2018-03-30T20:20:33.397Z,68.00
2018-03-30T20:23:02.023Z,68.60
2018-03-30T20:25:30.670Z,64.60
2018-03-30T20:27:59.246Z,65.40
2018-03-30T20:30:27.825Z,66.40
2018-03-30T20:32:56.445Z,61.40
2018-03-30T20:35:25.277Z,60.00
2018-03-30T20:37:53.791Z,59.80
2018-03-30T20:40:22.189Z,64.80
2018-03-30T20:42:51.754Z,65.60
2018-03-30T20:45:20.694Z,58.40
2018-03-30T20:47:48.890Z,65.80
2018-03-30T20:50:17.264Z,63.00
2018-03-30T20:52:45.970Z,62.20
2018-03-30T20:55:14.860Z,66.20
2018-03-30T20:57:43.262Z,65.60
2018-03-30T21:00:11.510Z,63.20
2018-03-30T21:02:40.157Z,62.80
2018-03-30T21:05:08.546Z,62.80
2018-03-30T21:07:36.975Z,61.80
2018-03-30T21:10:05.542Z,64.40
2018-03-30T21:12:34.205Z,64.40
2018-03-30T21:15:02.824Z,66.80
2018-03-30T21:17:30.870Z,67.40
2018-03-30T21:19:59.443Z,62.80
2018-03-30T21:22:27.912Z,62.80
2018-03-30T21:24:56.386Z,60.20
2018-03-30T21:27:25.029Z,63.40
2018-03-30T21:29:53.363Z,65.20
2018-03-30T21:32:21.925Z,61.40
2018-03-30T21:34:50.584Z,63.60
2018-03-30T21:37:19.251Z,58.20
2018-03-30T21:39:47.921Z,63.40
2018-03-30T21:42:16.622Z,59.40
2018-03-30T21:44:45.395Z,64.40
2018-03-30T21:47:13.559Z,62.00
2018-03-30T21:49:41.749Z,57.80
2018-03-30T21:52:10.074Z,61.40
2018-03-30T21:54:38.610Z,61.60
2018-03-30T21:57:07.413Z,60.80
2018-03-30T21:59:35.831Z,60.20
2018-03-30T22:02:03.909Z,58.20
2018-03-30T22:04:32.454Z,64.20
2018-03-30T22:07:00.826Z,43.20
2018-03-30T22:09:29.371Z,61.60
2018-03-30T22:11:58.052Z,62.20
2018-03-30T22:14:26.410Z,57.00
2018-03-30T22:16:55.020Z,56.40
2018-03-30T22:19:23.303Z,61.80
2018-03-30T22:21:51.888Z,55.20
2018-03-30T22:24:20.390Z,65.40
2018-03-30T22:26:48.902Z,64.80
2018-03-30T22:29:17.256Z,63.80
2018-03-30T22:31:45.515Z,62.80
2018-03-30T22:34:13.963Z,65.00
2018-03-30T22:36:42.290Z,60.00
2018-03-30T22:39:10.751Z,62.60
2018-03-30T22:41:39.122Z,65.00
2018-03-30T22:44:08.158Z,62.20
2018-03-30T22:46:36.828Z,59.60
2018-03-30T22:49:05.374Z,61.40
2018-03-30T22:51:33.931Z,58.00
2018-03-30T22:54:02.361Z,53.00
2018-03-30T22:56:31.244Z,58.80
2018-03-30T22:58:59.893Z,61.20
2018-03-30T23:01:28.585Z,56.20
2018-03-30T23:03:57.187Z,58.80
2018-03-30T23:06:25.439Z,59.20
2018-03-30T23:08:54.051Z,59.40
2018-03-30T23:11:22.818Z,57.00
2018-03-30T23:13:50.956Z,55.20
2018-03-30T23:16:19.508Z,55.60
2018-03-30T23:18:48.239Z,58.40
2018-03-30T23:21:16.565Z,61.40
2018-03-30T23:23:45.360Z,58.00
2018-03-30T23:26:14.251Z,59.40
2018-03-30T23:28:42.917Z,61.20
2018-03-30T23:31:11.808Z,61.00
2018-03-30T23:33:40.471Z,58.80
2018-03-30T23:36:09.077Z,71.00
2018-03-30T23:38:37.662Z,61.20
2018-03-30T23:41:06.074Z,63.40
2018-03-30T23:43:34.632Z,61.60
2018-03-30T23:46:03.356Z,58.80
2018-03-30T23:48:31.662Z,59.60
2018-03-30T23:51:00.063Z,61.20
2018-03-30T23:53:28.851Z,61.00
2018-03-30T23:55:57.269Z,56.80
2018-03-30T23:58:25.899Z,60.60
